createdAt,value
2023-03-21T00:00:31.754Z,8.72
2023-03-21T00:03:01.309Z,8.70
2023-03-21T00:05:29.186Z,8.69
2023-03-21T00:07:57.047Z,8.68
2023-03-21T00:10:39.082Z,8.68
2023-03-21T00:13:08.598Z,8.66
2023-03-21T00:16:03.520Z,8.67
2023-03-21T00:18:36.660Z,8.65
2023-03-21T00:21:37.622Z,8.65
2023-03-21T00:23:54.382Z,8.66
2023-03-21T00:26:23.478Z,8.64
2023-03-21T00:28:51.768Z,8.63
2023-03-21T00:31:21.980Z,8.61
2023-03-21T00:33:52.169Z,8.61
2023-03-21T00:36:19.932Z,8.61
2023-03-21T00:38:47.672Z,8.61
2023-03-21T00:41:26.343Z,8.59
2023-03-21T00:44:04.108Z,8.59
2023-03-21T00:46:43.713Z,8.59
2023-03-21T00:49:16.276Z,8.59
2023-03-21T00:51:44.833Z,8.58
2023-03-21T00:54:14.098Z,8.57
2023-03-21T00:56:42.161Z,8.59
2023-03-21T00:59:11.007Z,8.57
2023-03-21T01:01:38.971Z,8.56
2023-03-21T01:04:13.501Z,8.56
2023-03-21T01:06:44.300Z,8.55
2023-03-21T01:09:16.501Z,8.56
2023-03-21T01:11:45.282Z,8.54
2023-03-21T01:14:28.823Z,8.55
2023-03-21T01:16:56.644Z,8.54
2023-03-21T01:19:40.591Z,8.53
2023-03-21T01:22:17.367Z,8.53
2023-03-21T01:24:53.144Z,8.52
2023-03-21T01:27:24.681Z,8.52
2023-03-21T01:29:52.623Z,8.52
2023-03-21T01:32:20.809Z,8.52
2023-03-21T01:34:48.629Z,8.50
2023-03-21T01:37:19.090Z,8.52
2023-03-21T01:39:49.576Z,8.51
2023-03-21T01:42:17.448Z,8.50
2023-03-21T01:44:55.530Z,8.49
2023-03-21T01:47:23.929Z,8.49
2023-03-21T01:50:14.881Z,8.47
2023-03-21T01:53:17.143Z,8.48
2023-03-21T01:55:45.074Z,8.47
2023-03-21T01:58:23.005Z,8.47
2023-03-21T02:01:07.824Z,8.44
2023-03-21T02:03:51.348Z,8.45
2023-03-21T02:06:52.555Z,8.44
2023-03-21T02:09:43.063Z,8.44
2023-03-21T02:12:18.701Z,8.42
2023-03-21T02:14:49.473Z,8.42
2023-03-21T02:17:52.246Z,8.40
2023-03-21T02:21:08.456Z,8.39
2023-03-21T02:24:03.208Z,8.39
2023-03-21T02:27:04.412Z,8.37
2023-03-21T02:29:57.789Z,8.37
2023-03-21T02:32:38.515Z,8.36
2023-03-21T02:35:25.941Z,8.36
2023-03-21T02:38:00.917Z,8.36
2023-03-21T02:40:35.522Z,8.35
2023-03-21T02:43:22.104Z,8.35
2023-03-21T02:45:54.717Z,8.37
2023-03-21T02:48:35.400Z,8.37
2023-03-21T02:51:08.978Z,8.37
2023-03-21T02:53:42.193Z,8.37
2023-03-21T02:56:11.464Z,8.37
2023-03-21T02:58:45.612Z,8.38
2023-03-21T03:01:13.837Z,8.39
2023-03-21T03:03:48.623Z,8.40
2023-03-21T03:06:19.782Z,8.39
2023-03-21T03:09:02.718Z,8.39
2023-03-21T03:11:34.297Z,8.39
2023-03-21T03:14:39.980Z,8.39
2023-03-21T03:17:21.113Z,8.37
2023-03-21T03:20:07.141Z,8.38
2023-03-21T03:22:47.944Z,8.37
2023-03-21T03:25:35.753Z,8.37
2023-03-21T03:28:11.095Z,8.37
2023-03-21T03:30:46.535Z,8.37
2023-03-21T03:33:23.520Z,8.36
2023-03-21T03:36:04.378Z,8.36
2023-03-21T03:38:36.657Z,8.37
2023-03-21T03:41:11.693Z,8.36
2023-03-21T03:43:50.841Z,8.35
2023-03-21T03:46:25.695Z,8.35
2023-03-21T03:48:57.851Z,8.33
2023-03-21T03:51:30.523Z,8.34
2023-03-21T03:54:13.942Z,8.34
2023-03-21T03:56:44.302Z,8.33
2023-03-21T03:59:12.149Z,8.32
2023-03-21T04:02:17.131Z,8.31
2023-03-21T04:04:45.107Z,8.31
2023-03-21T04:07:12.922Z,8.31
2023-03-21T04:09:44.874Z,8.31
2023-03-21T04:12:18.190Z,8.30
2023-03-21T04:15:10.662Z,8.30
2023-03-21T04:17:42.702Z,8.29
2023-03-21T04:20:16.709Z,8.30
2023-03-21T04:22:52.198Z,8.31
2023-03-21T04:25:32.557Z,8.30
2023-03-21T04:28:03.784Z,8.28
2023-03-21T04:31:02.287Z,8.29
2023-03-21T04:33:38.409Z,8.29
2023-03-21T04:36:09.365Z,8.29
2023-03-21T04:38:39.089Z,8.31
2023-03-21T04:41:07.631Z,8.31
2023-03-21T04:43:37.350Z,8.33
2023-03-21T04:46:06.346Z,8.33
2023-03-21T04:48:34.310Z,8.31
2023-03-21T04:51:02.255Z,8.30
2023-03-21T04:53:30.051Z,8.29
2023-03-21T04:55:58.567Z,8.28
2023-03-21T04:58:26.655Z,8.28
2023-03-21T05:00:57.356Z,8.27
2023-03-21T05:03:25.473Z,8.24
2023-03-21T05:05:53.400Z,8.22
2023-03-21T05:08:21.225Z,8.20
2023-03-21T05:10:49.060Z,8.20
2023-03-21T05:13:16.920Z,8.18
2023-03-21T05:15:44.818Z,8.17
2023-03-21T05:18:14.116Z,8.15
2023-03-21T05:20:59.341Z,8.15
2023-03-21T05:23:31.770Z,8.12
2023-03-21T05:25:59.865Z,8.10
2023-03-21T05:28:40.243Z,8.11
2023-03-21T05:31:09.242Z,8.09
2023-03-21T05:33:38.670Z,8.11
2023-03-21T05:36:07.177Z,8.10
2023-03-21T05:38:35.031Z,8.10
2023-03-21T05:41:03.029Z,8.10
2023-03-21T05:43:32.401Z,8.12
2023-03-21T05:46:00.261Z,8.10
2023-03-21T05:48:30.469Z,8.09
2023-03-21T05:51:16.755Z,8.11
2023-03-21T05:53:44.568Z,8.09
2023-03-21T05:56:13.861Z,8.10
2023-03-21T05:58:47.673Z,8.09
2023-03-21T06:01:15.848Z,8.08
2023-03-21T06:03:50.565Z,8.08
2023-03-21T06:06:23.959Z,8.09
2023-03-21T06:08:56.864Z,8.08
2023-03-21T06:11:27.771Z,8.07
2023-03-21T06:14:14.036Z,8.08
2023-03-21T06:16:43.118Z,8.06
2023-03-21T06:19:11.192Z,8.06
2023-03-21T06:21:52.906Z,8.10
2023-03-21T06:24:20.827Z,8.10
2023-03-21T06:26:49.167Z,8.08
2023-03-21T06:29:17.072Z,8.09
2023-03-21T06:31:49.374Z,8.12
2023-03-21T06:34:17.884Z,8.13
2023-03-21T06:36:46.684Z,8.12
2023-03-21T06:39:17.681Z,8.16
2023-03-21T06:41:46.522Z,8.14
2023-03-21T06:44:14.426Z,8.16
2023-03-21T06:46:50.531Z,8.19
2023-03-21T06:49:20.948Z,8.19
2023-03-21T06:51:49.138Z,8.21
2023-03-21T06:54:21.674Z,8.21
2023-03-21T06:56:56.891Z,8.20
2023-03-21T06:59:29.128Z,8.23
2023-03-21T07:02:02.544Z,8.25
2023-03-21T07:04:31.661Z,8.28
2023-03-21T07:06:59.655Z,8.28
2023-03-21T07:09:29.996Z,8.30
2023-03-21T07:12:03.314Z,8.32
2023-03-21T07:14:43.794Z,8.34
2023-03-21T07:17:11.709Z,8.35
2023-03-21T07:19:39.521Z,8.37
2023-03-21T07:22:07.327Z,8.38
2023-03-21T07:24:36.470Z,8.42
2023-03-21T07:27:04.307Z,8.44
2023-03-21T07:29:32.290Z,8.44
2023-03-21T07:32:00.147Z,8.46
2023-03-21T07:34:33.006Z,8.49
2023-03-21T07:37:04.028Z,8.50
2023-03-21T07:39:33.055Z,8.52
2023-03-21T07:42:02.797Z,8.52
2023-03-21T07:44:37.086Z,8.54
2023-03-21T07:47:05.077Z,8.56
2023-03-21T07:49:33.793Z,8.57
2023-03-21T07:52:04.299Z,8.59
2023-03-21T07:54:32.600Z,8.61
2023-03-21T07:57:01.813Z,8.62
2023-03-21T07:59:29.564Z,8.63
2023-03-21T08:01:57.368Z,8.63
2023-03-21T08:04:26.041Z,8.64
2023-03-21T08:06:53.866Z,8.65
2023-03-21T08:09:22.057Z,8.68
2023-03-21T08:11:49.855Z,8.71
2023-03-21T08:14:19.014Z,8.73
2023-03-21T08:16:46.840Z,8.76
2023-03-21T08:19:14.696Z,8.78
2023-03-21T08:21:42.589Z,8.80
2023-03-21T08:24:10.574Z,8.81
2023-03-21T08:26:38.679Z,8.82
2023-03-21T08:29:06.817Z,8.82
2023-03-21T08:31:36.257Z,8.84
2023-03-21T08:34:04.061Z,8.86
2023-03-21T08:36:32.228Z,8.86
2023-03-21T08:39:05.475Z,8.87
2023-03-21T08:41:33.401Z,8.89
2023-03-21T08:44:01.244Z,8.92
2023-03-21T08:46:29.053Z,8.95
2023-03-21T08:48:58.243Z,8.98
2023-03-21T08:51:26.024Z,8.99
2023-03-21T08:53:53.813Z,9.00
2023-03-21T08:56:21.608Z,9.01
2023-03-21T08:58:49.667Z,9.01
2023-03-21T09:01:17.510Z,9.02
2023-03-21T09:03:45.262Z,9.06
2023-03-21T09:06:14.594Z,9.10
2023-03-21T09:08:43.349Z,9.12
2023-03-21T09:11:11.743Z,9.13
2023-03-21T09:13:39.520Z,9.18
2023-03-21T09:16:08.038Z,9.18
2023-03-21T09:18:49.546Z,9.20
2023-03-21T09:21:20.314Z,9.24
2023-03-21T09:23:48.691Z,9.26
2023-03-21T09:26:17.145Z,9.24
2023-03-21T09:28:46.185Z,9.28
2023-03-21T09:31:16.649Z,9.27
2023-03-21T09:33:44.846Z,9.29
2023-03-21T09:36:14.204Z,9.32
2023-03-21T09:38:45.587Z,9.39
2023-03-21T09:41:35.260Z,9.42
2023-03-21T09:44:15.306Z,9.43
2023-03-21T09:46:46.774Z,9.46
2023-03-21T09:49:20.431Z,9.47
2023-03-21T09:51:52.827Z,9.52
2023-03-21T09:54:25.835Z,9.56
2023-03-21T09:56:56.368Z,9.58
2023-03-21T09:59:36.516Z,9.63
2023-03-21T10:02:06.213Z,9.64
2023-03-21T10:04:34.935Z,9.67
2023-03-21T10:07:04.487Z,9.71
2023-03-21T10:09:34.773Z,9.72
2023-03-21T10:12:07.398Z,9.73
2023-03-21T10:14:39.245Z,9.78
2023-03-21T10:17:20.058Z,9.83
2023-03-21T10:19:50.256Z,9.86
2023-03-21T10:22:18.045Z,9.93
2023-03-21T10:24:47.196Z,10.01
2023-03-21T10:27:15.387Z,10.08
2023-03-21T10:29:45.299Z,10.13
2023-03-21T10:32:16.747Z,10.22
2023-03-21T10:34:48.856Z,10.26
2023-03-21T10:37:17.748Z,10.29
2023-03-21T10:39:50.213Z,10.30
2023-03-21T10:42:23.774Z,10.38
2023-03-21T10:44:54.352Z,10.37
2023-03-21T10:47:26.010Z,10.42
2023-03-21T10:50:07.302Z,10.48
2023-03-21T10:52:38.391Z,10.58
2023-03-21T10:55:18.616Z,10.71
2023-03-21T10:57:47.363Z,10.79
2023-03-21T11:00:21.742Z,10.82
2023-03-21T11:02:51.941Z,10.85
2023-03-21T11:05:24.378Z,10.91
2023-03-21T11:08:04.146Z,10.94
2023-03-21T11:10:35.729Z,10.88
2023-03-21T11:13:08.344Z,10.91
2023-03-21T11:15:43.823Z,10.99
2023-03-21T11:18:16.567Z,11.08
2023-03-21T11:20:50.351Z,11.12
2023-03-21T11:23:20.624Z,11.16
2023-03-21T11:25:51.666Z,11.16
2023-03-21T11:28:22.381Z,11.26
2023-03-21T11:30:54.190Z,11.45
2023-03-21T11:33:23.923Z,11.57
2023-03-21T11:36:03.128Z,11.68
2023-03-21T11:38:33.926Z,11.72
2023-03-21T11:41:04.903Z,11.73
2023-03-21T11:43:36.108Z,11.74
2023-03-21T11:46:09.722Z,11.73
2023-03-21T11:48:41.269Z,11.70
2023-03-21T11:51:18.303Z,11.73
2023-03-21T11:53:50.351Z,11.87
2023-03-21T11:56:26.531Z,11.96
2023-03-21T11:59:20.072Z,11.99
2023-03-21T12:02:01.280Z,11.93
2023-03-21T12:04:42.399Z,11.90
2023-03-21T12:07:26.775Z,11.82
2023-03-21T12:10:03.760Z,11.69
2023-03-21T12:12:39.665Z,11.61
2023-03-21T12:15:18.820Z,11.60
2023-03-21T12:17:59.327Z,11.62
2023-03-21T12:20:48.295Z,11.66
2023-03-21T12:23:28.448Z,11.65
2023-03-21T12:26:07.162Z,11.61
2023-03-21T12:28:48.110Z,11.57
2023-03-21T12:31:25.125Z,11.56
2023-03-21T12:34:03.636Z,11.59
2023-03-21T12:36:48.002Z,11.62
2023-03-21T12:39:28.041Z,11.59
2023-03-21T12:42:07.801Z,11.59
2023-03-21T12:44:41.738Z,11.58
2023-03-21T12:47:14.596Z,11.64
2023-03-21T12:49:48.015Z,11.71
2023-03-21T12:52:19.830Z,11.81
2023-03-21T12:54:51.948Z,11.92
2023-03-21T12:57:23.829Z,12.03
2023-03-21T13:00:00.100Z,12.33
2023-03-21T13:02:32.640Z,12.59
2023-03-21T13:05:08.242Z,12.92
2023-03-21T13:07:40.869Z,13.27
2023-03-21T13:10:15.687Z,13.29
2023-03-21T13:12:52.105Z,13.35
2023-03-21T13:15:52.726Z,13.34
2023-03-21T13:18:31.572Z,13.23
2023-03-21T13:21:02.960Z,13.16
2023-03-21T13:23:37.175Z,13.36
2023-03-21T13:26:09.150Z,13.40
2023-03-21T13:28:39.841Z,13.64
2023-03-21T13:31:20.626Z,13.64
2023-03-21T13:33:50.672Z,13.62
2023-03-21T13:36:25.671Z,13.43
2023-03-21T13:38:56.242Z,13.40
2023-03-21T13:41:31.148Z,13.53
2023-03-21T13:44:10.324Z,13.47
2023-03-21T13:46:53.950Z,13.41
2023-03-21T13:49:28.943Z,13.48
2023-03-21T13:51:58.381Z,13.50
2023-03-21T13:54:31.549Z,13.38
2023-03-21T13:57:01.617Z,13.28
2023-03-21T13:59:48.935Z,13.06
2023-03-21T14:02:30.456Z,12.94
2023-03-21T14:05:06.845Z,12.88
2023-03-21T14:07:38.142Z,12.89
2023-03-21T14:10:10.633Z,12.94
2023-03-21T14:12:41.973Z,12.86
2023-03-21T14:15:18.836Z,12.86
2023-03-21T14:17:56.233Z,12.81
2023-03-21T14:20:26.797Z,12.80
2023-03-21T14:22:55.080Z,12.80
2023-03-21T14:25:29.231Z,12.66
2023-03-21T14:28:03.838Z,12.58
2023-03-21T14:30:35.458Z,12.62
2023-03-21T14:33:09.009Z,12.64
2023-03-21T14:35:37.383Z,12.58
2023-03-21T14:38:07.342Z,12.66
2023-03-21T14:40:35.617Z,12.60
2023-03-21T14:43:06.869Z,12.59
2023-03-21T14:45:37.273Z,12.56
2023-03-21T14:48:09.488Z,12.55
2023-03-21T14:50:41.913Z,12.53
2023-03-21T14:53:16.669Z,12.52
2023-03-21T14:55:47.178Z,12.49
2023-03-21T14:58:19.182Z,12.44
2023-03-21T15:00:50.776Z,12.43
2023-03-21T15:03:23.521Z,12.43
2023-03-21T15:05:51.470Z,12.46
2023-03-21T15:08:21.621Z,12.47
2023-03-21T15:11:06.160Z,12.46
2023-03-21T15:13:37.348Z,12.51
2023-03-21T15:16:06.310Z,12.50
2023-03-21T15:18:39.117Z,12.49
2023-03-21T15:21:11.456Z,12.51
2023-03-21T15:23:42.744Z,12.52
2023-03-21T15:26:16.677Z,12.52
2023-03-21T15:28:47.200Z,12.51
2023-03-21T15:31:18.468Z,12.50
2023-03-21T15:33:48.969Z,12.43
2023-03-21T15:36:20.874Z,12.42
2023-03-21T15:38:49.726Z,12.42
2023-03-21T15:41:28.258Z,12.42
2023-03-21T15:44:03.689Z,12.41
2023-03-21T15:46:41.402Z,12.41
2023-03-21T15:49:18.998Z,12.34
2023-03-21T15:51:51.960Z,12.32
2023-03-21T15:54:24.609Z,12.31
2023-03-21T15:56:55.921Z,12.34
2023-03-21T15:59:28.042Z,12.34
2023-03-21T16:01:55.957Z,12.33
2023-03-21T16:04:26.190Z,12.29
2023-03-21T16:06:59.037Z,12.24
2023-03-21T16:09:27.313Z,12.24
2023-03-21T16:11:56.820Z,12.23
2023-03-21T16:14:27.798Z,12.20
2023-03-21T16:16:56.239Z,12.18
2023-03-21T16:19:27.658Z,12.14
2023-03-21T16:21:55.556Z,12.12
2023-03-21T16:24:23.369Z,12.10
2023-03-21T16:26:53.377Z,12.04
2023-03-21T16:29:21.214Z,11.98
2023-03-21T16:31:49.760Z,11.88
2023-03-21T16:34:17.573Z,11.79
2023-03-21T16:36:47.641Z,11.67
2023-03-21T16:39:19.720Z,11.50
2023-03-21T16:41:48.259Z,11.33
2023-03-21T16:44:16.446Z,11.16
2023-03-21T16:46:44.545Z,11.08
2023-03-21T16:49:20.336Z,11.06
2023-03-21T16:51:49.453Z,11.06
2023-03-21T16:54:17.329Z,11.00
2023-03-21T16:56:48.636Z,10.96
2023-03-21T16:59:16.720Z,10.95
2023-03-21T17:01:45.878Z,10.95
2023-03-21T17:04:13.841Z,10.94
2023-03-21T17:06:45.581Z,10.96
2023-03-21T17:09:16.307Z,10.96
2023-03-21T17:11:44.553Z,10.99
2023-03-21T17:14:14.244Z,11.00
2023-03-21T17:16:43.062Z,11.00
2023-03-21T17:19:15.509Z,10.99
2023-03-21T17:21:43.392Z,10.98
2023-03-21T17:24:11.194Z,10.95
2023-03-21T17:26:41.011Z,10.94
2023-03-21T17:29:08.843Z,10.90
2023-03-21T17:31:38.556Z,10.88
2023-03-21T17:34:06.532Z,10.85
2023-03-21T17:36:36.512Z,10.80
2023-03-21T17:39:06.842Z,10.74
2023-03-21T17:41:34.881Z,10.69
2023-03-21T17:44:04.017Z,10.66
2023-03-21T17:46:36.537Z,10.63
2023-03-21T17:49:05.705Z,10.62
2023-03-21T17:51:33.775Z,10.60
2023-03-21T17:54:01.662Z,10.57
2023-03-21T17:56:32.094Z,10.55
2023-03-21T17:59:01.122Z,10.54
2023-03-21T18:01:31.610Z,10.53
2023-03-21T18:04:02.097Z,10.54
2023-03-21T18:06:30.028Z,10.52
2023-03-21T18:08:59.626Z,10.52
2023-03-21T18:11:28.608Z,10.49
2023-03-21T18:14:06.814Z,10.46
2023-03-21T18:16:43.910Z,10.45
2023-03-21T18:19:12.776Z,10.43
2023-03-21T18:21:44.903Z,10.42
2023-03-21T18:24:13.116Z,10.41
2023-03-21T18:26:41.161Z,10.41
2023-03-21T18:30:13.229Z,10.40
2023-03-21T18:32:06.899Z,10.38
2023-03-21T18:34:37.078Z,10.35
2023-03-21T18:37:07.613Z,10.31
2023-03-21T18:39:36.229Z,10.31
2023-03-21T18:42:04.705Z,10.29
2023-03-21T18:44:37.291Z,10.28
2023-03-21T18:47:07.502Z,10.28
2023-03-21T18:52:23.539Z,10.26
2023-03-21T18:54:51.323Z,10.26
2023-03-21T18:57:37.368Z,10.27
2023-03-21T19:00:12.380Z,10.28
2023-03-21T19:02:46.775Z,10.31
2023-03-21T19:05:16.920Z,10.33
2023-03-21T19:07:44.883Z,10.39
2023-03-21T19:10:18.003Z,10.43
2023-03-21T19:12:46.555Z,10.45
2023-03-21T19:15:17.718Z,10.47
2023-03-21T19:18:26.480Z,10.45
2023-03-21T19:20:34.893Z,10.43
2023-03-21T19:23:03.218Z,10.43
2023-03-21T19:25:31.024Z,10.44
2023-03-21T19:27:58.813Z,10.44
2023-03-21T19:30:27.819Z,10.43
2023-03-21T19:32:57.104Z,10.41
2023-03-21T19:35:26.053Z,10.40
2023-03-21T19:37:53.905Z,10.39
2023-03-21T19:40:22.037Z,10.37
2023-03-21T19:42:49.895Z,10.34
2023-03-21T19:45:17.846Z,10.32
2023-03-21T19:47:46.237Z,10.28
2023-03-21T19:53:03.626Z,10.22
2023-03-21T19:55:31.451Z,10.21
2023-03-21T19:57:59.494Z,10.20
2023-03-21T20:00:27.309Z,10.21
2023-03-21T20:02:55.143Z,10.20
2023-03-21T20:05:25.620Z,10.19
2023-03-21T20:07:55.365Z,10.18
2023-03-21T20:10:23.731Z,10.15
2023-03-21T20:12:51.684Z,10.13
2023-03-21T20:15:21.867Z,10.13
2023-03-21T20:17:51.327Z,10.12
2023-03-21T20:20:19.911Z,10.10
2023-03-21T20:23:11.002Z,10.09
2023-03-21T20:25:43.106Z,10.05
2023-03-21T20:28:16.477Z,10.03
2023-03-21T20:30:53.296Z,10.00
2023-03-21T20:33:21.584Z,9.97
2023-03-21T20:38:40.750Z,9.89
2023-03-21T20:41:08.814Z,9.90
2023-03-21T20:44:28.247Z,9.88
2023-03-21T20:46:24.664Z,9.85
2023-03-21T20:48:52.511Z,9.81
2023-03-21T20:54:10.980Z,9.80
2023-03-21T20:56:38.900Z,9.79
2023-03-21T20:59:17.439Z,9.76
2023-03-21T21:01:48.582Z,9.73
2023-03-21T21:04:19.904Z,9.74
2023-03-21T21:06:48.157Z,9.74
2023-03-21T21:09:18.093Z,9.72
2023-03-21T21:14:35.501Z,9.71
2023-03-21T21:17:22.463Z,9.71
2023-03-21T21:19:51.458Z,9.71
2023-03-21T21:22:19.737Z,9.70
2023-03-21T21:24:48.925Z,9.68
2023-03-21T21:27:16.726Z,9.67
2023-03-21T21:29:46.657Z,9.64
2023-03-21T21:32:16.711Z,9.63
2023-03-21T21:34:44.653Z,9.58
2023-03-21T21:37:12.497Z,9.56
2023-03-21T21:39:42.009Z,9.51
2023-03-21T21:42:11.164Z,9.49
2023-03-21T21:44:44.025Z,9.47
2023-03-21T21:47:12.132Z,9.44
2023-03-21T21:49:40.070Z,9.43
2023-03-21T21:52:07.930Z,9.41
2023-03-21T21:54:36.181Z,9.43
2023-03-21T21:57:04.124Z,9.46
2023-03-21T21:59:33.901Z,9.47
2023-03-21T22:02:01.756Z,9.51
2023-03-21T22:04:30.126Z,9.57
2023-03-21T22:06:58.078Z,9.59
2023-03-21T22:09:26.014Z,9.58
2023-03-21T22:11:53.813Z,9.57
2023-03-21T22:14:21.608Z,9.63
2023-03-21T22:16:50.771Z,9.64
2023-03-21T22:19:19.076Z,9.66
2023-03-21T22:21:46.898Z,9.65
2023-03-21T22:24:14.739Z,9.66
2023-03-21T22:26:42.683Z,9.62
2023-03-21T22:29:10.581Z,9.65
2023-03-21T22:31:41.762Z,9.63
2023-03-21T22:34:10.988Z,9.60
2023-03-21T22:36:38.794Z,9.61
2023-03-21T22:39:06.614Z,9.61
2023-03-21T22:41:34.376Z,9.56
2023-03-21T22:44:02.175Z,9.54
2023-03-21T22:46:30.078Z,9.52
2023-03-21T22:48:57.900Z,9.51
2023-03-21T22:51:27.164Z,9.50
2023-03-21T22:53:54.949Z,9.48
2023-03-21T22:56:22.787Z,9.48
2023-03-21T22:58:50.598Z,9.47
2023-03-21T23:01:18.387Z,9.43
2023-03-21T23:03:46.227Z,9.44
2023-03-21T23:06:14.055Z,9.42
2023-03-21T23:08:43.203Z,9.38
2023-03-21T23:11:11.726Z,9.33
2023-03-21T23:13:41.236Z,9.28
2023-03-21T23:16:09.947Z,9.29
2023-03-21T23:18:38.540Z,9.27
2023-03-21T23:21:13.133Z,9.26
2023-03-21T23:23:43.792Z,9.24
2023-03-21T23:26:12.326Z,9.23
2023-03-21T23:28:40.103Z,9.21
2023-03-21T23:31:09.390Z,9.16
2023-03-21T23:33:37.333Z,9.17
2023-03-21T23:36:06.167Z,9.16
2023-03-21T23:38:34.617Z,9.16
2023-03-21T23:41:07.657Z,9.16
2023-03-21T23:43:35.793Z,9.14
2023-03-21T23:46:04.125Z,9.16
2023-03-21T23:48:32.187Z,9.14
2023-03-21T23:51:00.569Z,9.14
2023-03-21T23:53:28.631Z,9.11
2023-03-21T23:55:58.376Z,9.07
2023-03-21T23:58:29.616Z,9.05
